createdAt,value
2022-11-16T00:02:13.104Z,99.90
2022-11-16T00:04:41.822Z,99.90
2022-11-16T00:07:10.840Z,99.90
2022-11-16T00:09:39.357Z,99.90
2022-11-16T00:12:11.422Z,99.90
2022-11-16T00:14:41.325Z,99.90
2022-11-16T00:17:10.017Z,99.90
2022-11-16T00:19:38.796Z,99.90
2022-11-16T00:22:07.122Z,99.90
2022-11-16T00:24:36.257Z,99.90
2022-11-16T00:27:04.814Z,99.90
2022-11-16T00:29:33.227Z,99.90
2022-11-16T00:32:03.131Z,99.90
2022-11-16T00:34:31.535Z,99.90
2022-11-16T00:37:00.082Z,99.90
2022-11-16T00:39:28.868Z,99.90
2022-11-16T00:41:57.193Z,99.90
2022-11-16T00:44:25.892Z,99.90
2022-11-16T00:46:54.238Z,99.90
2022-11-16T00:49:24.217Z,99.90
2022-11-16T00:51:52.588Z,99.90
2022-11-16T00:54:22.421Z,99.90
2022-11-16T00:56:51.713Z,99.90
2022-11-16T00:59:20.121Z,99.90
2022-11-16T01:01:48.935Z,99.90
2022-11-16T01:04:18.514Z,99.90
2022-11-16T01:06:49.128Z,99.90
2022-11-16T01:09:17.631Z,99.90
2022-11-16T01:12:08.906Z,99.90
2022-11-16T01:14:37.596Z,99.90
2022-11-16T01:17:07.445Z,99.90
2022-11-16T01:19:36.081Z,99.90
2022-11-16T01:22:06.334Z,99.90
2022-11-16T01:24:34.950Z,99.90
2022-11-16T01:27:04.158Z,99.90
2022-11-16T01:29:35.613Z,99.90
2022-11-16T01:32:04.171Z,99.90
2022-11-16T01:34:33.171Z,99.90
2022-11-16T01:37:09.561Z,99.90
2022-11-16T01:39:41.775Z,99.90
2022-11-16T01:42:18.965Z,99.90
2022-11-16T01:45:05.998Z,99.90
2022-11-16T01:47:34.902Z,99.90
2022-11-16T01:50:10.289Z,99.90
2022-11-16T01:52:46.697Z,99.90
2022-11-16T01:55:15.125Z,99.90
2022-11-16T01:57:52.377Z,99.90
2022-11-16T02:00:21.085Z,99.90
2022-11-16T02:02:59.949Z,99.90
2022-11-16T02:05:49.733Z,99.90
2022-11-16T02:08:53.501Z,99.90
2022-11-16T02:11:50.398Z,99.90
2022-11-16T02:14:34.465Z,99.90
2022-11-16T02:17:12.338Z,99.90
2022-11-16T02:20:13.041Z,99.90
2022-11-16T02:22:58.829Z,99.90
2022-11-16T02:25:34.942Z,99.90
2022-11-16T02:28:22.059Z,99.90
2022-11-16T02:30:55.152Z,99.90
2022-11-16T02:33:32.260Z,99.90
2022-11-16T02:36:04.475Z,99.90
2022-11-16T02:38:37.244Z,99.90
2022-11-16T02:41:11.659Z,99.90
2022-11-16T02:43:43.142Z,99.90
2022-11-16T02:46:22.303Z,99.90
2022-11-16T02:48:54.748Z,99.90
2022-11-16T02:51:25.399Z,99.90
2022-11-16T02:54:02.313Z,99.90
2022-11-16T02:56:31.944Z,99.90
2022-11-16T02:59:01.455Z,99.90
2022-11-16T03:01:37.855Z,99.90
2022-11-16T03:04:12.930Z,99.90
2022-11-16T03:06:43.933Z,99.90
2022-11-16T03:09:15.771Z,99.90
2022-11-16T03:11:59.765Z,99.90
2022-11-16T03:14:34.581Z,99.90
2022-11-16T03:17:07.659Z,99.90
2022-11-16T03:19:42.975Z,99.90
2022-11-16T03:22:15.129Z,99.90
2022-11-16T03:24:44.398Z,99.90
2022-11-16T03:27:23.411Z,99.90
2022-11-16T03:30:03.526Z,99.90
2022-11-16T03:32:40.404Z,99.90
2022-11-16T03:35:17.029Z,99.90
2022-11-16T03:37:48.642Z,99.90
2022-11-16T03:40:19.608Z,99.90
2022-11-16T03:42:51.252Z,99.90
2022-11-16T03:45:20.932Z,99.90
2022-11-16T03:47:53.947Z,99.90
2022-11-16T03:50:23.552Z,99.90
2022-11-16T03:52:52.796Z,99.90
2022-11-16T03:55:21.079Z,99.90
2022-11-16T03:57:49.649Z,99.90
2022-11-16T04:00:18.187Z,99.90
2022-11-16T04:02:46.696Z,99.90
2022-11-16T04:05:39.099Z,99.90
2022-11-16T04:08:29.898Z,99.90
2022-11-16T04:11:18.253Z,99.90
2022-11-16T04:14:09.079Z,99.90
2022-11-16T04:16:57.234Z,99.90
2022-11-16T04:19:43.312Z,99.90
2022-11-16T04:22:47.422Z,99.90
2022-11-16T04:25:20.874Z,99.90
2022-11-16T04:28:06.969Z,99.90
2022-11-16T04:30:50.983Z,99.90
2022-11-16T04:33:37.903Z,99.90
2022-11-16T04:36:24.076Z,99.90
2022-11-16T04:38:54.065Z,99.90
2022-11-16T04:41:39.714Z,99.90
2022-11-16T04:44:08.541Z,99.90
2022-11-16T04:46:55.720Z,99.90
2022-11-16T04:49:23.990Z,99.90
2022-11-16T04:51:53.996Z,99.90
2022-11-16T04:54:24.098Z,99.90
2022-11-16T04:56:52.734Z,99.90
2022-11-16T04:59:21.657Z,99.90
2022-11-16T05:02:08.350Z,99.90
2022-11-16T05:04:44.137Z,99.90
2022-11-16T05:07:15.603Z,99.90
2022-11-16T05:09:49.502Z,99.90
2022-11-16T05:12:19.861Z,99.90
2022-11-16T05:14:50.365Z,99.90
2022-11-16T05:17:20.662Z,99.90
2022-11-16T05:20:07.074Z,99.90
2022-11-16T05:22:41.021Z,99.90
2022-11-16T05:25:11.402Z,99.90
2022-11-16T05:27:40.109Z,99.90
2022-11-16T05:30:09.549Z,99.90
2022-11-16T05:32:37.898Z,99.90
2022-11-16T05:35:07.324Z,99.90
2022-11-16T05:37:35.801Z,99.90
2022-11-16T05:40:04.436Z,99.90
2022-11-16T05:45:23.686Z,99.90
2022-11-16T05:47:52.759Z,99.90
2022-11-16T05:50:22.798Z,99.90
2022-11-16T05:53:04.965Z,99.90
2022-11-16T05:55:37.394Z,99.90
2022-11-16T05:58:06.345Z,99.90
2022-11-16T06:00:37.574Z,99.90
2022-11-16T06:03:07.422Z,99.90
2022-11-16T06:05:40.254Z,99.90
2022-11-16T06:08:10.635Z,99.90
2022-11-16T06:10:39.663Z,99.90
2022-11-16T06:13:10.265Z,99.90
2022-11-16T06:15:41.918Z,99.90
2022-11-16T06:18:11.889Z,99.90
2022-11-16T06:20:43.764Z,99.90
2022-11-16T06:23:12.422Z,99.90
2022-11-16T06:25:44.876Z,99.90
2022-11-16T06:28:14.401Z,99.90
2022-11-16T06:30:47.009Z,99.90
2022-11-16T06:33:16.295Z,99.90
2022-11-16T06:35:49.091Z,99.90
2022-11-16T06:38:23.567Z,99.90
2022-11-16T06:40:57.175Z,99.90
2022-11-16T06:43:31.212Z,99.90
2022-11-16T06:46:03.431Z,99.90
2022-11-16T06:48:34.273Z,99.90
2022-11-16T06:51:05.822Z,99.90
2022-11-16T06:53:34.667Z,99.90
2022-11-16T06:56:05.316Z,99.90
2022-11-16T06:58:42.489Z,99.90
2022-11-16T07:01:13.805Z,99.90
2022-11-16T07:03:44.563Z,99.90
2022-11-16T07:06:15.389Z,99.90
2022-11-16T07:08:47.037Z,99.90
2022-11-16T07:11:20.421Z,99.90
2022-11-16T07:13:49.878Z,99.90
2022-11-16T07:16:21.416Z,99.90
2022-11-16T07:18:59.394Z,99.90
2022-11-16T07:21:31.490Z,99.90
2022-11-16T07:24:02.972Z,99.90
2022-11-16T07:26:33.544Z,99.90
2022-11-16T07:29:08.632Z,99.90
2022-11-16T07:31:42.893Z,99.90
2022-11-16T07:34:27.403Z,99.90
2022-11-16T07:37:12.290Z,99.90
2022-11-16T07:39:42.027Z,99.90
2022-11-16T07:42:12.420Z,99.90
2022-11-16T07:45:00.055Z,99.90
2022-11-16T07:47:30.848Z,99.90
2022-11-16T07:49:59.796Z,99.90
2022-11-16T07:52:30.206Z,99.90
2022-11-16T07:55:08.144Z,99.90
2022-11-16T07:57:37.165Z,99.90
2022-11-16T08:00:09.894Z,99.90
2022-11-16T08:02:52.493Z,99.90
2022-11-16T08:05:22.955Z,99.90
2022-11-16T08:07:52.822Z,99.90
2022-11-16T08:10:24.954Z,99.90
2022-11-16T08:12:55.010Z,99.90
2022-11-16T08:15:26.331Z,99.90
2022-11-16T08:17:58.660Z,99.90
2022-11-16T08:20:29.052Z,99.90
2022-11-16T08:23:03.735Z,99.90
2022-11-16T08:25:36.670Z,99.90
2022-11-16T08:28:05.606Z,99.90
2022-11-16T08:30:34.174Z,99.90
2022-11-16T08:33:04.471Z,99.90
2022-11-16T08:35:33.462Z,99.90
2022-11-16T08:38:02.769Z,99.90
2022-11-16T08:40:33.557Z,99.90
2022-11-16T08:43:02.457Z,99.90
2022-11-16T08:45:31.414Z,99.90
2022-11-16T08:48:03.824Z,99.90
2022-11-16T08:51:02.276Z,99.90
2022-11-16T08:53:28.421Z,99.90
2022-11-16T08:56:03.000Z,99.90
2022-11-16T08:58:34.733Z,99.90
2022-11-16T09:01:14.589Z,99.90
2022-11-16T09:03:44.059Z,99.90
2022-11-16T09:06:19.531Z,99.90
2022-11-16T09:08:49.833Z,99.90
2022-11-16T09:11:21.413Z,99.90
2022-11-16T09:13:53.839Z,99.90
2022-11-16T09:16:30.565Z,99.90
2022-11-16T09:18:59.592Z,99.90
2022-11-16T09:21:37.989Z,99.90
2022-11-16T09:24:07.341Z,99.90
2022-11-16T09:26:36.533Z,99.90
2022-11-16T09:29:07.017Z,99.90
2022-11-16T09:31:37.589Z,99.90
2022-11-16T09:34:13.419Z,99.90
2022-11-16T09:36:45.630Z,99.90
2022-11-16T09:39:29.998Z,99.90
2022-11-16T09:42:28.326Z,99.90
2022-11-16T09:45:06.621Z,99.90
2022-11-16T09:47:43.739Z,99.90
2022-11-16T09:50:27.661Z,99.90
2022-11-16T09:53:06.747Z,99.90
2022-11-16T09:55:40.776Z,99.90
2022-11-16T09:58:16.312Z,99.90
2022-11-16T10:00:52.093Z,99.90
2022-11-16T10:03:21.390Z,99.90
2022-11-16T10:06:05.386Z,99.90
2022-11-16T10:08:44.577Z,99.90
2022-11-16T10:11:33.441Z,99.90
2022-11-16T10:14:18.190Z,99.90
2022-11-16T10:16:51.466Z,99.90
2022-11-16T10:19:27.825Z,99.90
2022-11-16T10:22:03.782Z,99.90
2022-11-16T10:24:55.317Z,99.30
2022-11-16T10:27:44.917Z,99.90
2022-11-16T10:30:16.244Z,99.60
2022-11-16T10:32:52.781Z,99.80
2022-11-16T10:35:29.292Z,99.50
2022-11-16T10:38:02.881Z,99.90
2022-11-16T10:40:40.363Z,99.30
2022-11-16T10:43:15.736Z,99.90
2022-11-16T10:45:53.887Z,98.90
2022-11-16T10:48:37.943Z,98.80
2022-11-16T10:51:07.853Z,98.50
2022-11-16T10:53:38.025Z,99.00
2022-11-16T10:56:19.310Z,98.70
2022-11-16T10:58:55.124Z,97.90
2022-11-16T11:01:37.588Z,96.90
2022-11-16T11:04:20.406Z,96.20
2022-11-16T11:06:52.048Z,95.40
2022-11-16T11:09:30.101Z,94.50
2022-11-16T11:12:32.990Z,93.90
2022-11-16T11:15:25.570Z,93.10
2022-11-16T11:18:17.641Z,92.10
2022-11-16T11:20:50.988Z,92.20
2022-11-16T11:23:25.573Z,91.30
2022-11-16T11:26:01.284Z,90.30
2022-11-16T11:28:39.327Z,89.40
2022-11-16T11:31:14.569Z,89.20
2022-11-16T11:33:56.977Z,88.20
2022-11-16T11:36:56.261Z,87.00
2022-11-16T11:39:42.377Z,86.00
2022-11-16T11:42:28.042Z,86.50
2022-11-16T11:45:10.528Z,84.90
2022-11-16T11:47:59.047Z,84.90
2022-11-16T11:50:52.363Z,84.20
2022-11-16T11:53:45.797Z,85.10
2022-11-16T11:56:20.879Z,84.50
2022-11-16T11:59:05.850Z,82.40
2022-11-16T12:02:15.569Z,82.60
2022-11-16T12:05:28.334Z,82.10
2022-11-16T12:08:29.684Z,80.50
2022-11-16T12:11:50.450Z,81.50
2022-11-16T12:14:49.003Z,82.70
2022-11-16T12:17:41.563Z,82.70
2022-11-16T12:20:42.310Z,82.00
2022-11-16T12:23:52.538Z,81.30
2022-11-16T12:26:49.144Z,80.00
2022-11-16T12:29:42.463Z,78.30
2022-11-16T12:33:13.365Z,79.00
2022-11-16T12:35:58.381Z,77.00
2022-11-16T12:38:59.177Z,76.60
2022-11-16T12:42:33.494Z,77.60
2022-11-16T12:45:53.335Z,78.80
2022-11-16T13:10:31.637Z,80.80
2022-11-16T13:43:21.671Z,75.50
2022-11-16T13:49:33.286Z,75.40
2022-11-16T13:51:15.581Z,79.20
2022-11-16T14:39:29.362Z,76.30
2022-11-16T14:42:01.101Z,80.00
2022-11-16T14:44:33.266Z,82.80
2022-11-16T14:47:04.012Z,84.90
2022-11-16T14:49:36.424Z,86.10
2022-11-16T14:52:08.457Z,87.00
2022-11-16T14:54:42.669Z,87.90
2022-11-16T14:57:19.853Z,89.20
2022-11-16T14:59:48.435Z,89.50
2022-11-16T15:02:21.924Z,90.10
2022-11-16T15:04:51.253Z,90.60
2022-11-16T15:07:21.291Z,91.50
2022-11-16T15:09:53.743Z,92.00
2022-11-16T15:12:51.739Z,92.70
2022-11-16T15:15:24.940Z,93.10
2022-11-16T15:18:09.281Z,93.60
2022-11-16T15:20:39.579Z,94.30
2022-11-16T15:23:15.985Z,94.80
2022-11-16T15:25:48.250Z,95.40
2022-11-16T15:28:19.327Z,96.00
2022-11-16T15:30:51.288Z,96.10
2022-11-16T15:33:24.219Z,96.70
2022-11-16T15:35:54.122Z,97.20
2022-11-16T15:38:25.278Z,97.80
2022-11-16T15:40:57.454Z,98.20
2022-11-16T15:43:29.931Z,98.60
2022-11-16T15:45:59.940Z,98.80
2022-11-16T15:48:29.530Z,99.20
2022-11-16T15:51:09.124Z,99.50
2022-11-16T15:53:40.616Z,99.90
2022-11-16T15:56:15.469Z,99.90
2022-11-16T15:58:44.167Z,99.90
2022-11-16T16:01:14.860Z,99.90
2022-11-16T16:03:52.733Z,99.90
2022-11-16T16:06:46.405Z,99.90
2022-11-16T16:09:23.045Z,99.90
2022-11-16T16:11:53.879Z,99.90
2022-11-16T16:14:28.633Z,99.90
2022-11-16T16:16:59.331Z,99.90
2022-11-16T16:19:37.048Z,99.90
2022-11-16T16:22:07.440Z,99.90
2022-11-16T16:24:41.881Z,99.90
2022-11-16T16:27:14.116Z,99.90
2022-11-16T16:29:42.759Z,99.90
2022-11-16T16:32:16.411Z,99.90
2022-11-16T16:34:45.914Z,99.90
2022-11-16T16:37:14.759Z,99.90
2022-11-16T16:39:43.661Z,99.90
2022-11-16T16:42:14.441Z,99.90
2022-11-16T16:44:43.181Z,99.90
2022-11-16T16:47:12.205Z,99.90
2022-11-16T16:49:40.660Z,99.90
2022-11-16T16:52:09.746Z,99.90
2022-11-16T16:54:38.202Z,99.90
2022-11-16T16:57:06.858Z,99.90
2022-11-16T16:59:36.898Z,99.90
2022-11-16T17:02:10.906Z,99.90
2022-11-16T17:04:39.562Z,99.90
2022-11-16T17:07:08.232Z,99.90
2022-11-16T17:09:36.888Z,99.90
2022-11-16T17:12:05.719Z,99.90
2022-11-16T17:14:34.277Z,99.90
2022-11-16T17:17:05.174Z,99.90
2022-11-16T17:19:34.063Z,99.90
2022-11-16T17:22:02.482Z,99.90
2022-11-16T17:24:30.952Z,99.90
2022-11-16T17:26:59.511Z,99.90
2022-11-16T17:29:28.673Z,99.90
2022-11-16T17:31:57.122Z,99.90
2022-11-16T17:34:27.382Z,99.90
2022-11-16T17:36:56.083Z,99.90
2022-11-16T17:39:24.966Z,99.90
2022-11-16T17:41:53.632Z,99.90
2022-11-16T17:44:22.404Z,99.90
2022-11-16T17:46:50.961Z,99.90
2022-11-16T17:49:19.543Z,99.90
2022-11-16T17:51:49.509Z,99.90
2022-11-16T17:54:18.093Z,99.90
2022-11-16T17:56:46.522Z,99.90
2022-11-16T17:59:15.325Z,99.90
2022-11-16T18:01:43.968Z,99.90
2022-11-16T18:04:12.553Z,99.90
2022-11-16T18:06:41.013Z,99.90
2022-11-16T18:09:11.358Z,99.90
2022-11-16T18:11:40.777Z,99.90
2022-11-16T18:14:10.664Z,99.90
2022-11-16T18:16:41.257Z,99.90
2022-11-16T18:19:10.108Z,99.90
2022-11-16T18:21:41.638Z,99.90
2022-11-16T18:24:12.675Z,99.90
2022-11-16T18:26:41.994Z,99.90
2022-11-16T18:29:12.818Z,99.90
2022-11-16T18:31:42.162Z,99.90
2022-11-16T18:34:13.296Z,99.90
2022-11-16T18:36:41.847Z,99.90
2022-11-16T18:39:12.023Z,99.90
2022-11-16T18:41:48.763Z,99.90
2022-11-16T18:44:21.932Z,99.90
2022-11-16T18:46:50.416Z,99.90
2022-11-16T18:49:18.813Z,99.90
2022-11-16T18:51:47.466Z,99.90
2022-11-16T18:54:17.366Z,99.90
2022-11-16T18:56:45.864Z,99.90
2022-11-16T18:59:14.266Z,99.90
2022-11-16T19:01:42.760Z,99.90
2022-11-16T19:04:12.452Z,99.90
2022-11-16T19:06:40.932Z,99.90
2022-11-16T19:09:09.882Z,99.90
2022-11-16T19:11:40.107Z,99.90
2022-11-16T19:14:08.832Z,99.90
2022-11-16T19:16:41.875Z,99.90
2022-11-16T19:19:13.803Z,99.90
2022-11-16T19:21:42.323Z,99.90
2022-11-16T19:24:11.030Z,99.90
2022-11-16T19:26:40.874Z,99.90
2022-11-16T19:29:09.391Z,99.90
2022-11-16T19:31:37.897Z,99.90
2022-11-16T19:34:08.486Z,99.90
2022-11-16T19:36:38.013Z,99.90
2022-11-16T19:39:07.218Z,99.90
2022-11-16T19:41:36.767Z,99.90
2022-11-16T19:44:06.974Z,99.90
2022-11-16T19:46:36.087Z,99.90
2022-11-16T19:49:04.508Z,99.90
2022-11-16T19:51:35.181Z,99.90
2022-11-16T19:54:04.718Z,99.90
2022-11-16T19:56:35.482Z,99.90
2022-11-16T19:59:04.273Z,99.90
2022-11-16T20:01:34.674Z,99.90
2022-11-16T20:04:04.754Z,99.90
2022-11-16T20:06:35.320Z,99.90
2022-11-16T20:09:08.985Z,99.90
2022-11-16T20:11:39.413Z,99.90
2022-11-16T20:14:09.813Z,99.90
2022-11-16T20:16:42.011Z,99.90
2022-11-16T20:19:11.628Z,99.90
2022-11-16T20:21:42.184Z,99.90
2022-11-16T20:24:13.367Z,99.90
2022-11-16T20:26:43.420Z,99.90
2022-11-16T20:29:12.412Z,99.90
2022-11-16T20:31:45.482Z,99.90
2022-11-16T20:34:15.622Z,99.90
2022-11-16T20:36:46.184Z,99.90
2022-11-16T20:39:16.294Z,99.90
2022-11-16T20:41:45.095Z,99.90
2022-11-16T20:44:22.723Z,99.90
2022-11-16T20:46:52.956Z,99.90
2022-11-16T20:49:21.801Z,99.90
2022-11-16T20:51:51.309Z,99.90
2022-11-16T20:54:19.944Z,99.90
2022-11-16T20:56:49.982Z,99.90
2022-11-16T20:59:18.512Z,99.90
2022-11-16T21:01:48.854Z,99.90
2022-11-16T21:04:19.293Z,99.90
2022-11-16T21:06:48.078Z,99.90
2022-11-16T21:09:22.783Z,99.90
2022-11-16T21:12:32.165Z,99.90
2022-11-16T21:15:00.752Z,99.90
2022-11-16T21:17:31.578Z,99.90
2022-11-16T21:20:26.504Z,99.90
2022-11-16T21:22:51.180Z,99.90
2022-11-16T21:25:19.785Z,99.90
2022-11-16T21:27:48.411Z,99.90
2022-11-16T21:30:17.366Z,99.90
2022-11-16T21:32:45.950Z,99.90
2022-11-16T21:35:16.021Z,99.90
2022-11-16T21:37:44.672Z,99.90
2022-11-16T21:40:13.889Z,99.90
2022-11-16T21:42:42.618Z,99.90
2022-11-16T21:45:12.298Z,99.90
2022-11-16T21:47:40.780Z,99.90
2022-11-16T21:50:31.251Z,99.90
2022-11-16T21:53:00.810Z,99.90
2022-11-16T21:55:29.377Z,99.90
2022-11-16T21:57:58.557Z,99.90
2022-11-16T22:00:27.760Z,99.90
2022-11-16T22:02:56.547Z,99.90
2022-11-16T22:05:42.140Z,99.90
2022-11-16T22:08:12.971Z,99.90
2022-11-16T22:10:41.419Z,99.90
2022-11-16T22:13:09.940Z,99.90
2022-11-16T22:15:38.627Z,99.90
2022-11-16T22:18:07.444Z,99.90
2022-11-16T22:20:35.897Z,99.90
2022-11-16T22:23:04.738Z,99.90
2022-11-16T22:25:35.069Z,99.90
2022-11-16T22:28:20.358Z,99.90
2022-11-16T22:30:52.048Z,99.90
2022-11-16T22:33:21.190Z,99.90
2022-11-16T22:35:49.882Z,99.90
2022-11-16T22:38:18.328Z,99.90
2022-11-16T22:40:52.721Z,99.90
2022-11-16T22:43:22.391Z,99.90
2022-11-16T22:45:50.904Z,99.90
2022-11-16T22:48:19.588Z,99.90
2022-11-16T22:50:48.037Z,99.90
2022-11-16T22:53:16.592Z,99.90
2022-11-16T22:55:45.328Z,99.90
2022-11-16T22:58:15.500Z,99.90
2022-11-16T23:00:44.100Z,99.90
2022-11-16T23:03:12.487Z,99.90
2022-11-16T23:05:40.986Z,99.90
2022-11-16T23:08:09.495Z,99.90
2022-11-16T23:10:58.681Z,99.90
2022-11-16T23:13:47.101Z,99.90
2022-11-16T23:16:15.739Z,99.90
2022-11-16T23:18:44.360Z,99.90
2022-11-16T23:21:30.116Z,99.90
2022-11-16T23:24:21.288Z,99.90
2022-11-16T23:27:07.563Z,99.90
2022-11-16T23:29:37.670Z,99.90
2022-11-16T23:32:06.836Z,99.90
2022-11-16T23:34:35.575Z,99.90
2022-11-16T23:37:04.762Z,99.90
2022-11-16T23:39:33.889Z,99.90
2022-11-16T23:42:19.929Z,99.90
2022-11-16T23:44:50.401Z,99.90
2022-11-16T23:47:19.038Z,99.90
2022-11-16T23:49:47.753Z,99.90
2022-11-16T23:52:16.408Z,99.90
2022-11-16T23:54:45.114Z,99.90
2022-11-16T23:57:13.807Z,99.90
2022-11-16T23:59:45.446Z,99.90
